Estación Meteorológica Peña el Pijo (Robertgarden) [ 12/09/19 16:24:12 CET ]

Fecha Hora Presion(HPa) Temp (°C) Humedad % Rocio (°C) Viento ( m/s) Direccion Lluvia 1Hora(mm) Lluvia 24H(mm) LLuvia Total(mm)
2019-Aug-26 01:01:43 1010.600 17.1 72 12.0         372.15
2019-Aug-26 02:01:52 1010.100 16.7 73 11.8         372.15
2019-Aug-26 03:02:13 1010.300 15.5 76 11.3         372.15
2019-Aug-26 04:02:10 1010.300 14.2 78 10.4         372.15
2019-Aug-26 05:02:07 1010.100 13.9 79 10.3         372.15
2019-Aug-26 06:03:17 1009.900 14.4 81 11.2         372.15
2019-Aug-26 07:01:47 1009.700 13.5 80 10.1         372.15
2019-Aug-26 08:01:46 1009.500 12.9 82 9.9         372.15
2019-Aug-26 09:01:47 1009.500 15.9 80 12.5         372.15
2019-Aug-26 10:01:40 1009.400 16.4 79 12.8         372.15
2019-Aug-26 11:01:38 1009.600 21.4 70 15.7         372.15
2019-Aug-26 12:01:33 1010.000 24.1 58 15.3         372.15
2019-Aug-26 13:01:50 1010.000 24.7 53 14.5         372.15
2019-Aug-26 14:01:50 1009.900 22.6 59 14.2         372.15
2019-Aug-26 15:01:29 1009.400 23.9 56 14.6         372.15
2019-Aug-26 16:01:48 1008.800 24.8 56 15.4         372.15
2019-Aug-26 17:01:46 1008.900 23.5 60 15.3         372.15
2019-Aug-26 18:01:58 1008.600 24.4 58 15.6         372.15
2019-Aug-26 19:02:02 1008.200 23.1 61 15.1         372.15
2019-Aug-26 20:01:59 1007.900 21.4 66 14.8         372.15
2019-Aug-26 21:01:43 1008.300 20.3 70 14.7         372.15
2019-Aug-26 22:01:41 1009.200 19.9 72 14.7         372.15
2019-Aug-26 23:01:41 1009.400 19.5 74 14.7         372.15

Temperatura Máxima:24°    Temperatura Mínima:12°
Presión Máxima:1010.600 Hpa    Presión Mínima:1007.900 Hpa


Volver